createdAt,value
2023-04-06T00:00:38.122Z,21.30
2023-04-06T00:03:04.918Z,16.15
2023-04-06T00:05:31.902Z,17.58
2023-04-06T00:07:59.400Z,18.92
2023-04-06T00:10:26.468Z,18.02
2023-04-06T00:12:53.727Z,17.17
2023-04-06T00:15:21.281Z,18.60
2023-04-06T00:17:48.041Z,17.73
2023-04-06T00:20:14.832Z,17.85
2023-04-06T00:22:41.586Z,17.02
2023-04-06T00:25:08.571Z,18.73
2023-04-06T00:27:35.487Z,17.30
2023-04-06T00:30:03.098Z,17.25
2023-04-06T00:32:29.809Z,17.27
2023-04-06T00:34:56.520Z,20.02
2023-04-06T00:37:23.415Z,19.58
2023-04-06T00:39:50.119Z,19.27
2023-04-06T00:42:16.808Z,17.80
2023-04-06T00:44:43.523Z,16.00
2023-04-06T00:47:10.900Z,18.05
2023-04-06T00:49:37.644Z,21.48
2023-04-06T00:52:04.365Z,21.85
2023-04-06T00:54:31.839Z,19.83
2023-04-06T00:56:58.881Z,21.45
2023-04-06T00:59:26.146Z,22.48
2023-04-06T01:01:52.996Z,20.50
2023-04-06T01:04:20.146Z,24.10
2023-04-06T01:06:46.796Z,15.38
2023-04-06T01:09:13.488Z,17.92
2023-04-06T01:11:40.134Z,17.35
2023-04-06T01:14:07.186Z,20.17
2023-04-06T01:16:34.832Z,23.55
2023-04-06T01:19:01.698Z,18.70
2023-04-06T01:21:28.453Z,15.80
2023-04-06T01:23:55.115Z,21.10
2023-04-06T01:26:22.007Z,18.40
2023-04-06T01:28:48.657Z,21.77
2023-04-06T01:31:15.640Z,22.58
2023-04-06T01:33:42.444Z,18.13
2023-04-06T01:36:09.231Z,19.23
2023-04-06T01:38:36.156Z,19.42
2023-04-06T01:41:02.855Z,19.38
2023-04-06T01:43:29.593Z,20.70
2023-04-06T01:45:56.584Z,19.00
2023-04-06T01:48:23.316Z,21.95
2023-04-06T01:50:50.021Z,18.00
2023-04-06T01:53:17.403Z,16.70
2023-04-06T01:55:44.063Z,20.15
2023-04-06T01:58:10.768Z,20.58
2023-04-06T02:00:37.503Z,19.13
2023-04-06T02:03:04.488Z,19.63
2023-04-06T02:05:34.313Z,19.45
2023-04-06T02:08:00.991Z,18.92
2023-04-06T02:10:27.673Z,22.35
2023-04-06T02:12:54.372Z,25.40
2023-04-06T02:15:21.038Z,27.52
2023-04-06T02:17:47.856Z,24.33
2023-04-06T02:20:14.804Z,27.05
2023-04-06T02:22:41.664Z,25.23
2023-04-06T02:25:09.039Z,28.05
2023-04-06T02:27:36.534Z,22.75
2023-04-06T02:30:06.964Z,23.45
2023-04-06T02:32:33.689Z,27.13
2023-04-06T02:35:01.328Z,24.60
2023-04-06T02:37:28.119Z,19.95
2023-04-06T02:39:55.595Z,21.48
2023-04-06T02:42:22.298Z,23.70
2023-04-06T02:44:48.986Z,20.17
2023-04-06T02:47:16.143Z,22.17
2023-04-06T02:49:42.861Z,19.10
2023-04-06T02:52:09.490Z,18.58
2023-04-06T02:54:36.175Z,19.88
2023-04-06T02:57:02.834Z,21.80
2023-04-06T02:59:32.085Z,20.15
2023-04-06T03:01:58.868Z,20.75
2023-04-06T03:04:26.581Z,18.00
2023-04-06T03:06:54.637Z,18.02
2023-04-06T03:09:21.364Z,19.48
2023-04-06T03:11:48.003Z,20.23
2023-04-06T03:14:14.651Z,19.88
2023-04-06T03:16:41.342Z,15.43
2023-04-06T03:19:08.171Z,16.50
2023-04-06T03:21:35.047Z,12.93
2023-04-06T03:24:01.698Z,19.10
2023-04-06T03:26:28.422Z,15.18
2023-04-06T03:28:55.088Z,15.32
2023-04-06T03:31:21.821Z,14.95
2023-04-06T03:33:48.577Z,21.50
2023-04-06T03:36:15.735Z,20.10
2023-04-06T03:38:42.426Z,19.27
2023-04-06T03:41:09.068Z,18.73
2023-04-06T03:43:35.717Z,21.13
2023-04-06T03:46:02.647Z,17.20
2023-04-06T03:48:29.318Z,14.85
2023-04-06T03:50:56.182Z,18.52
2023-04-06T03:53:22.900Z,18.55
2023-04-06T03:55:49.536Z,20.20
2023-04-06T03:58:16.224Z,16.92
2023-04-06T04:00:42.945Z,14.63
2023-04-06T04:03:09.804Z,13.73
2023-04-06T04:05:36.906Z,16.85
2023-04-06T04:08:03.910Z,17.30
2023-04-06T04:10:30.796Z,16.35
2023-04-06T04:12:57.584Z,15.30
2023-04-06T04:15:24.376Z,18.33
2023-04-06T04:17:51.771Z,17.95
2023-04-06T04:20:18.625Z,18.48
2023-04-06T04:22:45.376Z,18.27
2023-04-06T04:25:12.165Z,18.00
2023-04-06T04:27:38.832Z,16.33
2023-04-06T04:30:07.025Z,16.02
2023-04-06T04:32:33.663Z,17.38
2023-04-06T04:35:00.789Z,19.27
2023-04-06T04:37:27.461Z,16.40
2023-04-06T04:39:54.118Z,21.92
2023-04-06T04:42:20.876Z,14.07
2023-04-06T04:44:47.549Z,21.48
2023-04-06T04:47:14.193Z,19.42
2023-04-06T04:49:40.887Z,19.00
2023-04-06T04:52:07.562Z,18.52
2023-04-06T04:54:34.204Z,18.55
2023-04-06T04:57:01.061Z,24.58
2023-04-06T04:59:27.886Z,17.40
2023-04-06T05:01:55.588Z,19.13
2023-04-06T05:04:24.029Z,19.23
2023-04-06T05:06:50.761Z,18.88
2023-04-06T05:09:18.527Z,19.25
2023-04-06T05:11:45.172Z,18.50
2023-04-06T05:14:12.061Z,19.73
2023-04-06T05:16:38.771Z,16.20
2023-04-06T05:19:05.475Z,11.80
2023-04-06T05:21:32.841Z,20.88
2023-04-06T05:23:59.759Z,19.92
2023-04-06T05:26:26.490Z,17.33
2023-04-06T05:28:53.217Z,14.30
2023-04-06T05:31:19.874Z,16.95
2023-04-06T05:33:46.650Z,14.65
2023-04-06T05:36:14.959Z,15.82
2023-04-06T05:38:42.017Z,14.40
2023-04-06T05:41:08.807Z,13.32
2023-04-06T05:43:35.587Z,15.65
2023-04-06T05:46:03.047Z,13.65
2023-04-06T05:48:29.774Z,14.60
2023-04-06T05:50:56.621Z,16.05
2023-04-06T05:53:23.357Z,13.75
2023-04-06T05:55:50.057Z,12.60
2023-04-06T05:58:18.245Z,13.20
2023-04-06T06:00:47.061Z,11.48
2023-04-06T06:03:14.148Z,11.60
2023-04-06T06:05:40.918Z,12.80
2023-04-06T06:08:07.779Z,9.13
2023-04-06T06:10:34.409Z,10.32
2023-04-06T06:13:01.328Z,6.88
2023-04-06T06:15:27.954Z,7.55
2023-04-06T06:17:54.636Z,7.78
2023-04-06T06:20:21.366Z,8.98
2023-04-06T06:22:48.027Z,6.88
2023-04-06T06:25:14.973Z,6.75
2023-04-06T06:27:41.667Z,4.38
2023-04-06T06:30:08.702Z,2.92
2023-04-06T06:32:35.507Z,4.40
2023-04-06T06:35:02.242Z,5.55
2023-04-06T06:37:30.697Z,3.00
2023-04-06T06:39:58.073Z,3.58
2023-04-06T06:42:24.877Z,2.47
2023-04-06T06:44:52.512Z,2.45
2023-04-06T06:47:19.322Z,4.15
2023-04-06T06:49:46.006Z,4.03
2023-04-06T06:52:12.648Z,4.45
2023-04-06T06:54:39.562Z,5.50
2023-04-06T06:57:06.381Z,4.60
2023-04-06T06:59:33.306Z,4.72
2023-04-06T07:02:00.015Z,5.50
2023-04-06T07:04:27.152Z,3.97
2023-04-06T07:06:53.874Z,4.57
2023-04-06T07:09:20.676Z,2.10
2023-04-06T07:11:47.532Z,4.55
2023-04-06T07:14:14.280Z,5.22
2023-04-06T07:16:42.291Z,4.70
2023-04-06T07:19:10.633Z,3.83
2023-04-06T07:21:37.820Z,7.25
2023-04-06T07:24:04.664Z,5.32
2023-04-06T07:26:31.456Z,2.65
2023-04-06T07:28:58.157Z,4.95
2023-04-06T07:31:24.933Z,3.88
2023-04-06T07:33:51.660Z,4.72
2023-04-06T07:36:19.100Z,4.97
2023-04-06T07:38:47.156Z,3.17
2023-04-06T07:41:13.914Z,2.00
2023-04-06T07:43:40.683Z,3.22
2023-04-06T07:46:07.511Z,2.95
2023-04-06T07:48:34.280Z,2.78
2023-04-06T07:51:05.239Z,3.70
2023-04-06T07:53:32.143Z,3.13
2023-04-06T07:56:01.840Z,3.33
2023-04-06T07:58:28.722Z,3.45
2023-04-06T08:00:56.432Z,3.17
2023-04-06T08:03:26.718Z,8.15
2023-04-06T08:05:54.035Z,2.58
2023-04-06T08:08:22.345Z,2.60
2023-04-06T08:10:49.914Z,5.95
2023-04-06T08:13:17.199Z,7.13
2023-04-06T08:15:44.247Z,5.35
2023-04-06T08:18:11.369Z,4.93
2023-04-06T08:20:38.176Z,5.72
2023-04-06T08:23:05.018Z,8.30
2023-04-06T08:25:31.759Z,4.78
2023-04-06T08:27:58.418Z,6.30
2023-04-06T08:30:25.087Z,7.47
2023-04-06T08:32:52.045Z,3.25
2023-04-06T08:35:18.909Z,4.03
2023-04-06T08:37:45.861Z,5.10
2023-04-06T08:40:13.828Z,3.90
2023-04-06T08:42:44.766Z,6.13
2023-04-06T08:45:11.894Z,4.53
2023-04-06T08:47:38.696Z,2.55
2023-04-06T08:50:06.361Z,5.47
2023-04-06T08:52:35.027Z,5.55
2023-04-06T08:55:02.368Z,3.60
2023-04-06T08:57:30.058Z,6.68
2023-04-06T08:59:58.071Z,2.97
2023-04-06T09:02:25.906Z,4.78
2023-04-06T09:04:55.098Z,6.85
2023-04-06T09:07:22.577Z,2.75
2023-04-06T09:09:49.265Z,4.18
2023-04-06T09:12:30.429Z,5.90
2023-04-06T09:14:58.212Z,4.97
2023-04-06T09:17:27.340Z,2.75
2023-04-06T09:19:54.133Z,2.80
2023-04-06T09:22:21.197Z,5.03
2023-04-06T09:24:48.826Z,2.30
2023-04-06T09:27:17.452Z,6.05
2023-04-06T09:29:45.624Z,5.18
2023-04-06T09:32:13.187Z,4.20
2023-04-06T09:34:40.214Z,3.63
2023-04-06T09:37:20.533Z,4.50
2023-04-06T09:39:47.740Z,5.28
2023-04-06T09:42:27.020Z,4.60
2023-04-06T09:44:53.688Z,3.38
2023-04-06T09:47:21.105Z,5.45
2023-04-06T09:49:51.188Z,6.00
2023-04-06T09:52:19.189Z,2.95
2023-04-06T09:54:51.172Z,5.47
2023-04-06T09:57:30.144Z,4.40
2023-04-06T10:00:13.787Z,3.50
2023-04-06T10:03:10.870Z,8.70
2023-04-06T10:05:46.513Z,6.53
2023-04-06T10:08:15.149Z,4.97
2023-04-06T10:10:43.627Z,2.17
2023-04-06T10:13:12.721Z,8.18
2023-04-06T10:15:41.450Z,6.32
2023-04-06T10:18:11.087Z,9.00
2023-04-06T10:20:44.282Z,11.38
2023-04-06T10:26:00.968Z,4.80
2023-04-06T10:28:33.430Z,6.60
2023-04-06T10:31:02.610Z,5.97
2023-04-06T10:33:29.850Z,5.05
2023-04-06T10:35:56.981Z,7.95
2023-04-06T10:38:43.981Z,12.65
2023-04-06T10:41:13.718Z,3.95
2023-04-06T10:43:42.438Z,7.35
2023-04-06T10:46:10.800Z,11.10
2023-04-06T10:48:46.518Z,5.22
2023-04-06T10:51:16.044Z,5.88
2023-04-06T10:53:44.856Z,5.97
2023-04-06T10:56:13.262Z,7.25
2023-04-06T10:58:40.197Z,7.38
2023-04-06T11:01:07.134Z,9.93
2023-04-06T11:03:44.353Z,7.07
2023-04-06T11:06:11.153Z,8.40
2023-04-06T11:08:40.480Z,9.20
2023-04-06T11:11:08.693Z,6.57
2023-04-06T11:13:52.873Z,6.47
2023-04-06T11:16:24.588Z,12.57
2023-04-06T11:19:00.843Z,7.60
2023-04-06T11:21:40.159Z,6.13
2023-04-06T11:24:23.191Z,5.05
2023-04-06T11:26:56.127Z,8.70
2023-04-06T11:29:25.870Z,6.65
2023-04-06T11:31:54.421Z,6.03
2023-04-06T11:34:26.216Z,3.78
2023-04-06T11:37:01.453Z,5.38
2023-04-06T11:39:29.809Z,5.80
2023-04-06T11:42:01.586Z,8.13
2023-04-06T11:44:42.679Z,12.70
2023-04-06T11:47:11.173Z,8.20
2023-04-06T11:49:38.955Z,9.13
2023-04-06T11:52:18.640Z,7.18
2023-04-06T11:54:46.407Z,6.75
2023-04-06T11:57:13.110Z,7.70
2023-04-06T11:59:40.291Z,6.22
2023-04-06T12:02:07.604Z,5.47
2023-04-06T12:04:34.302Z,7.07
2023-04-06T12:07:01.116Z,8.07
2023-04-06T12:09:27.814Z,5.80
2023-04-06T12:11:54.462Z,9.35
2023-04-06T12:14:21.964Z,7.85
2023-04-06T12:16:48.712Z,8.48
2023-04-06T12:19:15.536Z,6.93
2023-04-06T12:21:43.025Z,4.78
2023-04-06T12:24:09.678Z,8.52
2023-04-06T12:26:38.191Z,3.90
2023-04-06T12:29:08.444Z,7.70
2023-04-06T12:31:40.212Z,5.70
2023-04-06T12:34:07.440Z,6.03
2023-04-06T12:36:34.781Z,6.25
2023-04-06T12:39:02.129Z,10.25
2023-04-06T12:41:29.843Z,8.27
2023-04-06T12:43:57.113Z,7.10
2023-04-06T12:46:24.564Z,9.38
2023-04-06T12:48:54.718Z,7.30
2023-04-06T12:51:21.650Z,4.60
2023-04-06T12:53:48.667Z,7.63
2023-04-06T12:56:19.298Z,8.85
2023-04-06T12:58:46.626Z,8.13
2023-04-06T13:01:14.835Z,8.82
2023-04-06T13:03:42.603Z,5.93
2023-04-06T13:06:10.043Z,7.53
2023-04-06T13:08:41.421Z,10.05
2023-04-06T13:11:10.132Z,14.95
2023-04-06T13:13:37.642Z,7.50
2023-04-06T13:16:06.842Z,7.55
2023-04-06T13:18:34.223Z,8.70
2023-04-06T13:21:00.957Z,8.75
2023-04-06T13:23:28.023Z,8.85
2023-04-06T13:26:08.364Z,8.68
2023-04-06T13:28:38.255Z,8.40
2023-04-06T13:31:05.007Z,8.82
2023-04-06T13:33:32.123Z,9.90
2023-04-06T13:36:00.233Z,5.10
2023-04-06T13:38:27.022Z,8.75
2023-04-06T13:40:55.786Z,7.35
2023-04-06T13:43:22.690Z,6.80
2023-04-06T13:45:56.007Z,5.70
2023-04-06T13:48:23.060Z,7.38
2023-04-06T13:50:49.765Z,4.47
2023-04-06T13:53:16.579Z,7.15
2023-04-06T13:55:52.910Z,6.30
2023-04-06T13:58:19.512Z,7.82
2023-04-06T14:00:46.362Z,4.82
2023-04-06T14:03:13.210Z,3.85
2023-04-06T14:05:39.925Z,7.07
2023-04-06T14:08:06.542Z,6.00
2023-04-06T14:10:38.445Z,5.57
2023-04-06T14:13:05.258Z,5.57
2023-04-06T14:15:31.854Z,4.43
2023-04-06T14:17:58.680Z,4.85
2023-04-06T14:20:25.310Z,5.47
2023-04-06T14:22:53.638Z,6.22
2023-04-06T14:25:21.134Z,2.53
2023-04-06T14:27:47.735Z,3.95
2023-04-06T14:30:14.955Z,4.35
2023-04-06T14:32:41.994Z,2.58
2023-04-06T14:35:09.173Z,1.40
2023-04-06T14:37:35.920Z,2.28
2023-04-06T14:40:03.801Z,2.08
2023-04-06T14:42:30.885Z,1.73
2023-04-06T14:44:57.641Z,1.55
2023-04-06T14:47:24.329Z,4.03
2023-04-06T14:49:53.086Z,2.03
2023-04-06T14:52:19.817Z,4.30
2023-04-06T14:54:46.547Z,2.00
2023-04-06T14:57:13.142Z,2.00
2023-04-06T14:59:40.365Z,1.92
2023-04-06T15:02:08.125Z,3.67
2023-04-06T15:04:38.351Z,2.40
2023-04-06T15:07:05.150Z,1.02
2023-04-06T15:09:31.926Z,2.28
2023-04-06T15:11:58.842Z,2.00
2023-04-06T15:14:25.997Z,5.95
2023-04-06T15:16:52.727Z,4.43
2023-04-06T15:19:19.548Z,1.55
2023-04-06T15:21:46.228Z,4.90
2023-04-06T15:24:12.925Z,3.85
2023-04-06T15:26:39.556Z,3.40
2023-04-06T15:29:06.363Z,4.72
2023-04-06T15:31:38.259Z,1.95
2023-04-06T15:34:09.140Z,0.77
2023-04-06T15:36:37.135Z,3.75
2023-04-06T15:39:04.471Z,2.38
2023-04-06T15:41:31.776Z,1.75
2023-04-06T15:43:58.633Z,3.05
2023-04-06T15:46:28.148Z,2.72
2023-04-06T15:48:56.091Z,4.70
2023-04-06T15:51:24.142Z,2.88
2023-04-06T15:53:50.844Z,4.07
2023-04-06T15:56:17.511Z,3.13
2023-04-06T15:58:44.261Z,2.97
2023-04-06T16:01:20.160Z,3.33
2023-04-06T16:03:47.011Z,3.28
2023-04-06T16:06:13.854Z,4.47
2023-04-06T16:08:41.117Z,3.13
2023-04-06T16:11:08.392Z,3.40
2023-04-06T16:13:36.087Z,3.42
2023-04-06T16:16:04.127Z,3.15
2023-04-06T16:18:32.508Z,1.92
2023-04-06T16:21:01.127Z,13.73
2023-04-06T16:23:28.387Z,3.05
2023-04-06T16:26:04.867Z,5.03
2023-04-06T16:28:31.699Z,5.30
2023-04-06T16:30:59.754Z,2.88
2023-04-06T16:33:26.576Z,5.05
2023-04-06T16:35:53.315Z,3.25
2023-04-06T16:38:24.268Z,5.88
2023-04-06T16:41:03.105Z,4.35
2023-04-06T16:43:29.884Z,4.15
2023-04-06T16:45:57.981Z,3.28
2023-04-06T16:48:27.078Z,3.22
2023-04-06T16:50:53.955Z,4.38
2023-04-06T16:53:20.816Z,4.32
2023-04-06T16:55:47.615Z,4.55
2023-04-06T16:58:14.600Z,2.42
2023-04-06T17:00:45.249Z,4.43
2023-04-06T17:03:12.331Z,3.63
2023-04-06T17:05:39.136Z,5.28
2023-04-06T17:08:05.994Z,6.25
2023-04-06T17:10:33.772Z,4.65
2023-04-06T17:13:03.993Z,2.97
2023-04-06T17:15:31.814Z,2.50
2023-04-06T17:17:58.600Z,3.42
2023-04-06T17:20:25.270Z,6.82
2023-04-06T17:22:51.994Z,4.80
2023-04-06T17:25:19.037Z,5.53
2023-04-06T17:27:45.969Z,7.35
2023-04-06T17:30:14.156Z,2.85
2023-04-06T17:32:43.576Z,5.88
2023-04-06T17:35:11.653Z,5.55
2023-04-06T17:37:39.075Z,2.83
2023-04-06T17:40:06.876Z,3.88
2023-04-06T17:42:33.546Z,4.03
2023-04-06T17:45:00.467Z,3.22
2023-04-06T17:47:32.429Z,4.30
2023-04-06T17:49:59.639Z,2.67
2023-04-06T17:52:27.508Z,3.33
2023-04-06T17:54:54.420Z,3.47
2023-04-06T17:57:21.625Z,6.30
2023-04-06T17:59:48.686Z,5.47
2023-04-06T18:02:16.214Z,3.20
2023-04-06T18:04:44.297Z,4.10
2023-04-06T18:07:11.537Z,4.72
2023-04-06T18:09:40.005Z,6.30
2023-04-06T18:12:07.273Z,6.38
2023-04-06T18:14:33.994Z,5.75
2023-04-06T18:17:00.686Z,4.50
2023-04-06T18:19:28.886Z,3.58
2023-04-06T18:21:56.012Z,5.05
2023-04-06T18:24:32.168Z,6.63
2023-04-06T18:27:07.808Z,6.28
2023-04-06T18:29:36.126Z,4.47
2023-04-06T18:32:02.816Z,5.35
2023-04-06T18:34:29.497Z,5.05
2023-04-06T18:36:56.274Z,4.70
2023-04-06T18:39:23.162Z,6.47
2023-04-06T18:41:49.808Z,5.22
2023-04-06T18:44:16.449Z,6.88
2023-04-06T18:46:46.706Z,3.85
2023-04-06T18:49:13.423Z,7.20
2023-04-06T18:51:42.972Z,4.88
2023-04-06T18:54:09.887Z,6.78
2023-04-06T18:56:38.495Z,3.28
2023-04-06T18:59:05.242Z,6.15
2023-04-06T19:01:33.138Z,6.60
2023-04-06T19:04:00.646Z,6.30
2023-04-06T19:06:28.066Z,6.45
2023-04-06T19:08:55.228Z,5.78
2023-04-06T19:11:25.190Z,6.32
2023-04-06T19:13:54.208Z,3.63
2023-04-06T19:16:21.180Z,6.53
2023-04-06T19:18:48.213Z,5.07
2023-04-06T19:21:15.968Z,9.00
2023-04-06T19:23:43.896Z,5.85
2023-04-06T19:26:12.183Z,6.22
2023-04-06T19:28:39.273Z,5.35
2023-04-06T19:31:08.767Z,7.38
2023-04-06T19:33:36.285Z,6.78
2023-04-06T19:36:04.433Z,12.73
2023-04-06T19:38:33.389Z,7.53
2023-04-06T19:41:01.302Z,9.60
2023-04-06T19:43:28.200Z,5.38
2023-04-06T19:45:54.857Z,6.43
2023-04-06T19:48:21.621Z,10.75
2023-04-06T19:50:48.325Z,10.30
2023-04-06T19:53:14.973Z,8.07
2023-04-06T19:55:41.538Z,7.22
2023-04-06T19:58:08.196Z,6.55
2023-04-06T20:00:34.859Z,8.00
2023-04-06T20:03:01.636Z,5.50
2023-04-06T20:05:28.615Z,14.38
2023-04-06T20:07:55.279Z,6.25
2023-04-06T20:10:22.027Z,8.95
2023-04-06T20:12:50.556Z,9.93
2023-04-06T20:15:19.930Z,13.63
2023-04-06T20:17:46.687Z,7.32
2023-04-06T20:20:13.434Z,7.88
2023-04-06T20:22:41.812Z,5.95
2023-04-06T20:25:08.905Z,6.63
2023-04-06T20:27:35.610Z,8.63
2023-04-06T20:30:02.309Z,8.50
2023-04-06T20:32:28.997Z,4.78
2023-04-06T20:34:56.429Z,7.88
2023-04-06T20:37:23.139Z,9.93
2023-04-06T20:39:49.938Z,7.93
2023-04-06T20:42:16.779Z,9.48
2023-04-06T20:44:43.564Z,6.78
2023-04-06T20:47:10.284Z,5.30
2023-04-06T20:49:37.020Z,3.03
2023-04-06T20:52:03.783Z,7.43
2023-04-06T20:54:30.525Z,6.07
2023-04-06T20:57:00.064Z,7.43
2023-04-06T20:59:29.757Z,6.28
2023-04-06T21:01:56.881Z,6.57
2023-04-06T21:04:23.828Z,11.82
2023-04-06T21:06:50.893Z,7.32
2023-04-06T21:09:19.837Z,8.80
2023-04-06T21:11:46.986Z,8.40
2023-04-06T21:14:13.753Z,7.10
2023-04-06T21:16:40.788Z,9.13
2023-04-06T21:19:08.244Z,11.32
2023-04-06T21:21:35.017Z,10.15
2023-04-06T21:24:01.937Z,11.95
2023-04-06T21:26:28.752Z,10.07
2023-04-06T21:28:55.536Z,12.95
2023-04-06T21:31:22.454Z,9.65
2023-04-06T21:33:49.340Z,9.35
2023-04-06T21:36:16.468Z,9.15
2023-04-06T21:38:43.231Z,6.90
2023-04-06T21:41:09.950Z,8.48
2023-04-06T21:43:36.793Z,5.88
2023-04-06T21:46:03.587Z,5.30
2023-04-06T21:48:30.539Z,7.43
2023-04-06T21:50:57.265Z,5.10
2023-04-06T21:53:23.945Z,5.43
2023-04-06T21:55:51.260Z,6.63
2023-04-06T21:58:18.067Z,6.05
2023-04-06T22:00:44.781Z,5.70
2023-04-06T22:03:11.711Z,5.65
2023-04-06T22:05:38.600Z,4.85
2023-04-06T22:08:05.468Z,6.80
2023-04-06T22:10:32.187Z,4.40
2023-04-06T22:12:59.022Z,4.47
2023-04-06T22:15:26.765Z,5.75
2023-04-06T22:17:53.602Z,6.63
2023-04-06T22:20:20.428Z,5.60
2023-04-06T22:22:47.206Z,5.93
2023-04-06T22:25:13.957Z,9.30
2023-04-06T22:27:40.806Z,5.32
2023-04-06T22:30:08.347Z,7.13
2023-04-06T22:32:35.199Z,9.15
2023-04-06T22:35:02.127Z,4.60
2023-04-06T22:37:28.864Z,8.15
2023-04-06T22:39:55.680Z,5.72
2023-04-06T22:42:22.362Z,7.55
2023-04-06T22:44:49.151Z,6.45
2023-04-06T22:47:16.134Z,12.73
2023-04-06T22:49:42.890Z,5.07
2023-04-06T22:52:09.573Z,5.47
2023-04-06T22:54:36.417Z,6.80
2023-04-06T22:57:03.108Z,8.35
2023-04-06T22:59:29.899Z,9.75
2023-04-06T23:01:57.131Z,6.65
2023-04-06T23:04:24.082Z,13.13
2023-04-06T23:06:51.088Z,4.40
2023-04-06T23:09:17.937Z,7.95
2023-04-06T23:11:44.772Z,10.23
2023-04-06T23:14:11.597Z,3.88
2023-04-06T23:16:38.419Z,6.60
2023-04-06T23:19:05.145Z,7.82
2023-04-06T23:21:33.135Z,5.88
2023-04-06T23:24:00.875Z,6.00
2023-04-06T23:26:27.742Z,6.70
2023-04-06T23:28:55.184Z,4.97
2023-04-06T23:31:21.961Z,9.25
2023-04-06T23:33:48.762Z,4.70
2023-04-06T23:36:15.659Z,5.20
2023-04-06T23:38:42.446Z,8.75
2023-04-06T23:41:09.132Z,3.63
2023-04-06T23:43:36.089Z,7.85
2023-04-06T23:46:02.853Z,7.10
2023-04-06T23:48:29.641Z,10.05
2023-04-06T23:50:56.613Z,3.65
2023-04-06T23:53:23.395Z,5.97
2023-04-06T23:55:50.373Z,7.90
2023-04-06T23:58:17.029Z,5.47
